createdAt,value
2023-05-10T00:01:26.076Z,5.78
2023-05-10T00:04:32.235Z,5.74
2023-05-10T00:07:41.676Z,5.67
2023-05-10T00:10:47.683Z,5.60
2023-05-10T00:13:54.570Z,5.67
2023-05-10T00:17:00.744Z,5.67
2023-05-10T00:20:08.897Z,5.58
2023-05-10T00:23:19.451Z,5.60
2023-05-10T00:26:26.289Z,5.56
2023-05-10T00:29:35.094Z,5.51
2023-05-10T00:32:42.004Z,5.41
2023-05-10T00:35:47.833Z,5.34
2023-05-10T00:38:58.220Z,5.29
2023-05-10T00:42:05.684Z,5.27
2023-05-10T00:45:13.901Z,5.28
2023-05-10T00:48:20.153Z,5.23
2023-05-10T00:51:27.432Z,5.13
2023-05-10T00:54:36.221Z,5.08
2023-05-10T00:57:43.854Z,5.10
2023-05-10T01:00:51.740Z,4.98
2023-05-10T01:04:00.119Z,4.98
2023-05-10T01:07:06.329Z,4.90
2023-05-10T01:10:16.504Z,4.95
2023-05-10T01:13:38.621Z,4.92
2023-05-10T01:16:49.701Z,4.89
2023-05-10T01:19:58.952Z,4.87
2023-05-10T01:23:40.041Z,4.81
2023-05-10T01:27:18.916Z,4.80
2023-05-10T01:31:17.054Z,4.72
2023-05-10T01:34:38.810Z,4.66
2023-05-10T01:37:54.482Z,4.70
2023-05-10T01:41:17.351Z,4.61
2023-05-10T01:44:38.700Z,4.57
2023-05-10T01:47:54.439Z,4.54
2023-05-10T01:51:03.878Z,4.48
2023-05-10T01:54:14.916Z,4.42
2023-05-10T01:57:27.998Z,4.43
2023-05-10T02:00:44.020Z,4.27
2023-05-10T02:03:54.111Z,4.40
2023-05-10T02:07:04.166Z,4.34
2023-05-10T02:10:14.495Z,4.33
2023-05-10T02:13:26.074Z,4.26
2023-05-10T02:16:34.803Z,4.28
2023-05-10T02:19:47.230Z,4.18
2023-05-10T02:23:02.111Z,4.21
2023-05-10T02:26:13.270Z,4.17
2023-05-10T02:29:24.544Z,4.20
2023-05-10T02:32:37.186Z,4.22
2023-05-10T02:35:52.508Z,4.19
2023-05-10T02:39:10.753Z,4.20
2023-05-10T02:42:23.683Z,4.14
2023-05-10T02:45:36.894Z,4.06
2023-05-10T02:48:42.912Z,4.01
2023-05-10T02:51:59.574Z,3.98
2023-05-10T02:55:21.960Z,3.95
2023-05-10T02:58:28.905Z,3.99
2023-05-10T03:01:41.181Z,3.94
2023-05-10T03:04:48.035Z,3.95
2023-05-10T03:07:57.033Z,3.98
2023-05-10T03:11:33.026Z,3.95
2023-05-10T03:15:00.996Z,4.03
2023-05-10T03:18:48.354Z,4.05
2023-05-10T03:22:02.989Z,4.04
2023-05-10T03:25:22.691Z,4.05
2023-05-10T03:28:39.552Z,4.00
2023-05-10T03:31:47.435Z,4.02
2023-05-10T03:34:56.715Z,3.97
2023-05-10T03:38:19.067Z,3.95
2023-05-10T03:41:26.649Z,3.89
2023-05-10T03:44:37.271Z,3.98
2023-05-10T03:47:44.345Z,4.09
2023-05-10T03:50:51.318Z,4.11
2023-05-10T03:53:57.273Z,4.11
2023-05-10T03:57:11.158Z,4.22
2023-05-10T04:00:21.091Z,4.12
2023-05-10T04:03:38.025Z,4.24
2023-05-10T04:06:44.998Z,4.55
2023-05-10T04:09:51.807Z,4.81
2023-05-10T04:12:58.083Z,5.24
2023-05-10T04:16:08.578Z,5.56
2023-05-10T04:19:14.534Z,6.04
2023-05-10T04:22:21.425Z,6.57
2023-05-10T04:25:27.292Z,6.91
2023-05-10T04:28:34.206Z,7.27
2023-05-10T04:31:42.711Z,7.57
2023-05-10T04:34:52.181Z,7.78
2023-05-10T04:37:58.289Z,7.59
2023-05-10T04:41:13.867Z,8.05
2023-05-10T04:44:25.513Z,8.05
2023-05-10T04:47:35.124Z,8.31
2023-05-10T04:50:41.625Z,8.22
2023-05-10T04:54:01.689Z,8.38
2023-05-10T04:57:11.891Z,8.10
2023-05-10T05:00:22.780Z,8.26
2023-05-10T05:03:31.381Z,8.75
2023-05-10T05:06:38.225Z,8.67
2023-05-10T05:09:51.176Z,8.74
2023-05-10T05:12:59.652Z,8.81
2023-05-10T05:16:06.552Z,9.33
2023-05-10T05:19:16.726Z,9.20
2023-05-10T05:22:28.631Z,9.44
2023-05-10T05:25:35.620Z,10.27
2023-05-10T05:28:42.128Z,10.26
2023-05-10T05:31:48.972Z,11.02
2023-05-10T05:34:57.686Z,11.18
2023-05-10T05:38:04.638Z,11.32
2023-05-10T05:41:10.694Z,11.61
2023-05-10T05:44:17.394Z,11.51
2023-05-10T05:47:23.516Z,11.68
2023-05-10T05:50:33.045Z,11.98
2023-05-10T05:53:39.045Z,11.90
2023-05-10T05:56:45.983Z,12.27
2023-05-10T05:59:51.896Z,12.58
2023-05-10T06:02:59.773Z,13.15
2023-05-10T06:06:10.351Z,13.28
2023-05-10T06:09:20.090Z,13.05
2023-05-10T06:12:28.029Z,12.90
2023-05-10T06:15:34.759Z,13.05
2023-05-10T06:18:42.582Z,13.55
2023-05-10T06:21:53.828Z,13.66
2023-05-10T06:25:00.005Z,13.87
2023-05-10T06:28:07.337Z,14.56
2023-05-10T06:31:13.746Z,15.10
2023-05-10T06:34:20.597Z,16.11
2023-05-10T06:37:29.124Z,15.21
2023-05-10T06:40:40.226Z,13.93
2023-05-10T06:43:46.110Z,14.32
2023-05-10T06:46:53.907Z,15.21
2023-05-10T06:49:59.872Z,15.40
2023-05-10T06:53:09.458Z,15.12
2023-05-10T06:56:15.545Z,14.50
2023-05-10T06:59:22.956Z,15.55
2023-05-10T07:02:29.210Z,15.18
2023-05-10T07:05:36.383Z,15.32
2023-05-10T07:08:44.984Z,15.81
2023-05-10T07:11:52.058Z,15.39
2023-05-10T07:14:57.908Z,16.15
2023-05-10T07:18:05.831Z,16.34
2023-05-10T07:21:12.043Z,17.66
2023-05-10T07:24:21.531Z,18.15
2023-05-10T07:27:27.508Z,17.78
2023-05-10T07:30:34.461Z,17.84
2023-05-10T07:33:40.330Z,18.40
2023-05-10T07:36:47.140Z,17.72
2023-05-10T07:39:59.001Z,17.07
2023-05-10T07:43:05.783Z,16.77
2023-05-10T07:46:12.327Z,17.14
2023-05-10T07:49:19.249Z,17.03
2023-05-10T07:52:26.558Z,18.07
2023-05-10T07:55:36.909Z,17.02
2023-05-10T07:58:42.971Z,16.84
2023-05-10T08:01:49.817Z,16.90
2023-05-10T08:04:57.294Z,16.82
2023-05-10T08:08:04.132Z,16.69
2023-05-10T08:11:18.860Z,17.00
2023-05-10T08:14:29.045Z,16.96
2023-05-10T08:17:35.017Z,18.10
2023-05-10T08:20:43.425Z,17.25
2023-05-10T08:23:55.275Z,17.24
2023-05-10T08:27:04.740Z,17.36
2023-05-10T08:30:14.340Z,17.45
2023-05-10T08:33:23.414Z,18.20
2023-05-10T08:36:29.689Z,16.62
2023-05-10T08:39:39.190Z,16.93
2023-05-10T08:42:59.680Z,17.09
2023-05-10T08:46:23.439Z,17.02
2023-05-10T08:49:36.101Z,16.91
2023-05-10T08:52:45.427Z,17.86
2023-05-10T08:55:54.587Z,17.76
2023-05-10T08:59:04.332Z,18.16
2023-05-10T09:02:15.207Z,18.78
2023-05-10T09:05:23.789Z,18.63
2023-05-10T09:08:32.101Z,18.58
2023-05-10T09:11:39.150Z,18.79
2023-05-10T09:14:50.537Z,18.70
2023-05-10T09:18:00.614Z,17.32
2023-05-10T09:21:24.531Z,18.17
2023-05-10T09:24:31.316Z,18.16
2023-05-10T09:27:37.583Z,18.37
2023-05-10T09:30:47.278Z,18.93
2023-05-10T09:33:54.640Z,19.01
2023-05-10T09:37:11.902Z,18.66
2023-05-10T09:40:20.826Z,19.24
2023-05-10T09:43:28.610Z,19.75
2023-05-10T09:46:40.318Z,19.22
2023-05-10T09:49:47.190Z,18.97
2023-05-10T09:52:56.398Z,18.61
2023-05-10T09:56:05.880Z,20.02
2023-05-10T09:59:14.978Z,19.73
2023-05-10T10:02:24.456Z,19.96
2023-05-10T10:05:34.957Z,19.64
2023-05-10T10:08:42.381Z,20.25
2023-05-10T10:11:48.403Z,20.22
2023-05-10T10:15:07.409Z,20.76
2023-05-10T10:18:20.316Z,19.44
2023-05-10T10:21:27.719Z,20.19
2023-05-10T10:24:33.732Z,19.66
2023-05-10T10:28:05.006Z,20.07
2023-05-10T10:31:30.788Z,20.17
2023-05-10T10:34:42.483Z,19.61
2023-05-10T10:37:50.342Z,20.38
2023-05-10T10:41:12.113Z,20.49
2023-05-10T10:44:43.147Z,17.64
2023-05-10T10:47:51.099Z,18.13
2023-05-10T10:51:04.357Z,18.18
2023-05-10T10:54:14.821Z,17.38
2023-05-10T10:57:31.476Z,17.95
2023-05-10T11:00:42.259Z,18.10
2023-05-10T11:04:24.211Z,17.84
2023-05-10T11:07:33.701Z,17.82
2023-05-10T11:10:40.017Z,17.54
2023-05-10T11:13:51.362Z,17.98
2023-05-10T11:17:01.155Z,17.05
2023-05-10T11:20:29.947Z,16.33
2023-05-10T11:23:57.353Z,16.21
2023-05-10T11:27:11.351Z,16.76
2023-05-10T11:30:19.323Z,17.37
2023-05-10T11:33:26.428Z,18.21
2023-05-10T11:36:37.311Z,18.51
2023-05-10T11:39:52.686Z,19.19
2023-05-10T11:43:00.771Z,18.73
2023-05-10T11:46:17.273Z,18.16
2023-05-10T11:49:24.872Z,18.05
2023-05-10T11:52:31.695Z,18.37
2023-05-10T11:55:40.919Z,18.84
2023-05-10T11:58:48.410Z,19.68
2023-05-10T12:02:07.246Z,19.59
2023-05-10T12:05:15.600Z,18.45
2023-05-10T12:08:28.256Z,18.31
2023-05-10T12:11:45.067Z,17.64
2023-05-10T12:14:56.447Z,18.67
2023-05-10T12:18:04.233Z,19.41
2023-05-10T12:21:10.441Z,18.82
2023-05-10T12:24:19.178Z,17.64
2023-05-10T12:27:27.752Z,17.84
2023-05-10T12:30:37.744Z,18.77
2023-05-10T12:33:47.649Z,18.78
2023-05-10T12:36:56.033Z,18.41
2023-05-10T12:40:08.438Z,18.82
2023-05-10T12:43:28.517Z,19.40
2023-05-10T12:46:34.551Z,18.74
2023-05-10T12:49:41.442Z,17.76
2023-05-10T12:52:50.837Z,17.71
2023-05-10T12:55:57.859Z,17.47
2023-05-10T12:59:06.415Z,16.95
2023-05-10T13:02:14.466Z,17.34
2023-05-10T13:05:20.844Z,17.42
2023-05-10T13:08:34.824Z,17.62
2023-05-10T13:11:42.104Z,17.69
2023-05-10T13:14:52.038Z,17.56
2023-05-10T13:18:00.189Z,17.49
2023-05-10T13:21:08.847Z,17.60
2023-05-10T13:24:16.483Z,17.51
2023-05-10T13:27:23.971Z,16.97
2023-05-10T13:30:33.198Z,16.54
2023-05-10T13:33:40.165Z,16.43
2023-05-10T13:36:47.014Z,16.29
2023-05-10T13:39:54.178Z,16.54
2023-05-10T13:43:08.476Z,17.11
2023-05-10T13:46:28.715Z,17.50
2023-05-10T13:49:36.295Z,17.56
2023-05-10T13:52:43.393Z,17.42
2023-05-10T13:55:50.186Z,17.25
2023-05-10T13:58:57.346Z,17.05
2023-05-10T14:02:07.976Z,16.71
2023-05-10T14:05:17.129Z,16.95
2023-05-10T14:08:25.274Z,16.97
2023-05-10T14:11:32.339Z,17.22
2023-05-10T14:14:38.591Z,16.49
2023-05-10T14:17:54.625Z,16.11
2023-05-10T14:21:03.304Z,16.27
2023-05-10T14:24:10.998Z,16.21
2023-05-10T14:27:20.763Z,16.47
2023-05-10T14:30:31.877Z,16.65
2023-05-10T14:33:41.340Z,16.78
2023-05-10T14:36:49.800Z,16.80
2023-05-10T14:39:56.521Z,17.10
2023-05-10T14:43:03.921Z,17.21
2023-05-10T14:46:10.301Z,16.84
2023-05-10T14:49:20.051Z,16.78
2023-05-10T14:52:27.321Z,16.41
2023-05-10T14:55:36.048Z,16.17
2023-05-10T14:58:42.516Z,16.62
2023-05-10T15:01:50.003Z,16.54
2023-05-10T15:05:00.596Z,16.34
2023-05-10T15:08:08.646Z,16.26
2023-05-10T15:11:16.814Z,16.26
2023-05-10T15:14:24.111Z,16.50
2023-05-10T15:17:30.363Z,16.30
2023-05-10T15:20:39.958Z,16.18
2023-05-10T15:23:48.649Z,16.23
2023-05-10T15:26:55.883Z,16.47
2023-05-10T15:30:08.248Z,16.30
2023-05-10T15:33:16.158Z,16.42
2023-05-10T15:36:24.936Z,16.24
2023-05-10T15:39:31.979Z,16.33
2023-05-10T15:42:42.414Z,16.18
2023-05-10T15:45:49.439Z,16.28
2023-05-10T15:48:58.463Z,16.28
2023-05-10T15:52:09.022Z,16.20
2023-05-10T15:55:17.559Z,16.32
2023-05-10T15:58:25.802Z,16.11
2023-05-10T16:01:32.825Z,16.02
2023-05-10T16:04:41.025Z,15.93
2023-05-10T16:07:49.881Z,15.66
2023-05-10T16:10:58.570Z,15.83
2023-05-10T16:14:08.521Z,15.86
2023-05-10T16:17:15.929Z,15.78
2023-05-10T16:20:24.465Z,15.71
2023-05-10T16:23:34.444Z,15.57
2023-05-10T16:26:41.354Z,15.62
2023-05-10T16:29:54.783Z,15.86
2023-05-10T16:33:01.345Z,15.69
2023-05-10T16:36:11.223Z,15.74
2023-05-10T16:39:20.190Z,15.88
2023-05-10T16:42:30.883Z,15.94
2023-05-10T16:45:44.350Z,16.02
2023-05-10T16:49:01.170Z,16.10
2023-05-10T16:52:07.605Z,16.09
2023-05-10T16:55:19.167Z,16.16
2023-05-10T16:58:26.332Z,15.99
2023-05-10T17:01:37.069Z,15.98
2023-05-10T17:04:43.797Z,16.07
2023-05-10T17:07:51.021Z,15.98
2023-05-10T17:11:04.430Z,16.05
2023-05-10T17:14:11.720Z,16.01
2023-05-10T17:17:18.673Z,16.03
2023-05-10T17:20:27.118Z,15.78
2023-05-10T17:23:33.423Z,15.82
2023-05-10T17:26:43.219Z,15.68
2023-05-10T17:29:49.582Z,15.72
2023-05-10T17:32:57.264Z,15.74
2023-05-10T17:36:05.729Z,15.71
2023-05-10T17:39:13.211Z,15.60
2023-05-10T17:42:22.303Z,15.56
2023-05-10T17:45:35.639Z,15.42
2023-05-10T17:48:45.281Z,15.40
2023-05-10T17:51:55.550Z,15.32
2023-05-10T17:55:09.682Z,15.19
2023-05-10T17:58:19.386Z,15.18
2023-05-10T18:01:26.601Z,15.05
2023-05-10T18:04:33.879Z,14.97
2023-05-10T18:07:42.696Z,14.84
2023-05-10T18:10:52.404Z,14.72
2023-05-10T18:14:10.241Z,14.53
2023-05-10T18:17:20.592Z,14.31
2023-05-10T18:20:29.262Z,14.30
2023-05-10T18:23:37.091Z,14.26
2023-05-10T18:26:44.216Z,14.24
2023-05-10T18:29:54.430Z,14.18
2023-05-10T18:33:00.918Z,14.09
2023-05-10T18:36:16.149Z,13.99
2023-05-10T18:39:23.678Z,13.85
2023-05-10T18:42:40.102Z,13.69
2023-05-10T18:45:48.877Z,13.62
2023-05-10T18:48:57.628Z,13.44
2023-05-10T18:52:04.815Z,13.35
2023-05-10T18:55:17.266Z,13.25
2023-05-10T18:58:24.055Z,13.13
2023-05-10T19:01:34.010Z,13.02
2023-05-10T19:04:41.141Z,12.91
2023-05-10T19:07:48.474Z,12.74
2023-05-10T19:10:54.766Z,12.64
2023-05-10T19:14:06.120Z,12.56
2023-05-10T19:17:17.134Z,12.49
2023-05-10T19:20:24.703Z,12.36
2023-05-10T19:23:32.813Z,12.30
2023-05-10T19:26:40.905Z,12.26
2023-05-10T19:29:47.101Z,12.23
2023-05-10T19:32:57.177Z,12.21
2023-05-10T19:36:03.283Z,12.05
2023-05-10T19:39:10.810Z,12.00
2023-05-10T19:42:17.991Z,11.97
2023-05-10T19:45:26.611Z,11.91
2023-05-10T19:48:35.809Z,11.85
2023-05-10T19:51:42.948Z,11.72
2023-05-10T19:54:48.934Z,11.63
2023-05-10T19:57:55.854Z,11.55
2023-05-10T20:01:01.979Z,11.48
2023-05-10T20:04:18.389Z,11.28
2023-05-10T20:07:25.923Z,11.14
2023-05-10T20:10:32.752Z,11.14
2023-05-10T20:13:38.756Z,11.05
2023-05-10T20:16:46.340Z,10.98
2023-05-10T20:19:56.996Z,10.91
2023-05-10T20:23:08.417Z,10.90
2023-05-10T20:26:26.014Z,10.86
2023-05-10T20:29:32.835Z,10.71
2023-05-10T20:32:39.022Z,10.67
2023-05-10T20:35:50.651Z,10.67
2023-05-10T20:39:02.312Z,10.55
2023-05-10T20:42:09.596Z,10.56
2023-05-10T20:45:15.885Z,10.46
2023-05-10T20:48:28.185Z,10.40
2023-05-10T20:51:39.916Z,10.38
2023-05-10T20:54:46.886Z,10.32
2023-05-10T20:57:53.213Z,10.23
2023-05-10T21:01:00.154Z,10.19
2023-05-10T21:04:07.198Z,10.17
2023-05-10T21:07:16.495Z,10.08
2023-05-10T21:10:23.120Z,10.05
2023-05-10T21:13:29.968Z,10.01
2023-05-10T21:16:36.085Z,9.93
2023-05-10T21:19:43.086Z,9.87
2023-05-10T21:22:51.764Z,9.82
2023-05-10T21:25:59.423Z,9.79
2023-05-10T21:29:05.520Z,9.78
2023-05-10T21:32:12.660Z,9.70
2023-05-10T21:35:18.710Z,9.60
2023-05-10T21:38:28.224Z,9.58
2023-05-10T21:41:34.452Z,9.53
2023-05-10T21:44:41.821Z,9.60
2023-05-10T21:47:48.156Z,9.51
2023-05-10T21:50:55.112Z,9.45
2023-05-10T21:54:03.795Z,9.43
2023-05-10T21:57:10.706Z,9.40
2023-05-10T22:00:24.826Z,9.38
2023-05-10T22:03:31.970Z,9.32
2023-05-10T22:06:38.007Z,9.36
2023-05-10T22:09:47.616Z,9.23
2023-05-10T22:12:53.801Z,9.11
2023-05-10T22:16:00.951Z,9.04
2023-05-10T22:19:10.085Z,9.05
2023-05-10T22:22:17.126Z,8.96
2023-05-10T22:25:25.927Z,8.72
2023-05-10T22:28:32.808Z,8.70
2023-05-10T22:31:39.302Z,8.73
2023-05-10T22:34:46.161Z,8.50
2023-05-10T22:37:52.041Z,8.30
2023-05-10T22:41:01.702Z,8.13
2023-05-10T22:44:08.607Z,8.18
2023-05-10T22:47:16.679Z,8.13
2023-05-10T22:50:25.917Z,8.07
2023-05-10T22:53:32.778Z,8.03
2023-05-10T22:56:41.496Z,7.91
2023-05-10T22:59:48.482Z,7.95
2023-05-10T23:02:54.879Z,7.86
2023-05-10T23:06:01.954Z,7.91
2023-05-10T23:09:08.204Z,8.02
2023-05-10T23:12:19.241Z,7.83
2023-05-10T23:15:25.181Z,7.77
2023-05-10T23:18:32.128Z,7.88
2023-05-10T23:21:38.274Z,7.99
2023-05-10T23:24:45.163Z,8.07
2023-05-10T23:27:53.781Z,8.12
2023-05-10T23:31:01.906Z,8.28
2023-05-10T23:34:08.065Z,8.29
2023-05-10T23:37:16.382Z,8.40
2023-05-10T23:40:22.404Z,8.31
2023-05-10T23:43:31.932Z,8.18
2023-05-10T23:46:37.960Z,8.15
2023-05-10T23:49:45.084Z,8.08
2023-05-10T23:52:51.213Z,8.03
2023-05-10T23:55:57.968Z,8.10
2023-05-10T23:59:06.581Z,8.05
